Main page
Satellite images 10-day forecastsClimateMarine weather Cyclones Lightning AirportsFAQ Newsletter About
Weather : Europe Africa North America South America Asia Australia-Oceania Others
Languages Contact

Waddington, England

RAF Waddington

latitude: 53-10N, longitude: 000-31W, elevation: 68 m


METAR: EGXW 310350Z 01005KT 9999 FEW025 BKN030 14/13 Q1015 BLU
TAF: EGXW 301617Z 3018/3024 07007KT 9999 SCT030 PROB30 3018/3024 BKN020 PROB30 TEMPO 3019/3024 4000 RA BKN006

Time: 05:43 (04:43 UTC)

Current weather observation

The report was made 53 minutes ago, at 03:50 UTC
Wind 5 kt from the North
Temperature 14°C
Humidity 94%
Pressure 1015 hPa
Visibility 10 km or more
Few clouds at a height of 2500 ft
Broken clouds at a height of 3000 ft

Change units

Forecast

The report was made 12 hours and 26 minutes ago, at 16:17 UTC
Forecast valid from 30 at 18 UTC to 30 at 24 UTC
Wind 7 kt from the East/Northeast
Visibility 10 km or more
Scattered clouds at a height of 3000 ft
Probability 30%
from 30 at 18 UTC to 30 at 24 UTC
Broken clouds at a height of 2000 ft
Probability 30% :
Temporary
from 30 at 19 UTC to 30 at 24 UTC
Visibility: 4000 m
Broken clouds at a height of 600 ft
rain
The information on this site is subject to a disclaimer
Weather : Europe Africa North America South America Asia Australia-Oceania Others
Satellite images 10-day forecastsClimateMarine weather Cyclones Lightning AirportsFAQ Languages Contact Newsletter About